Time;durP1;ratioP1;P1;durP2;ratioP2;P2;SDS_P1;SDS_P2;PMS_P1;PMS_P2;Temp;Humidity;BMP_temperature;BMP_pressure;BME280_temperature;BME280_humidity;BME280_pressure;Samples;Min_cycle;Max_cycle;Signal;HPM_P1;HPM_P2
2022/04/11 00:00:38;;;;;;;9.45;5.50;;;1.80;99.90;;;;;;5096041;28;20068;-67
2022/04/11 00:03:05;;;;;;;8.00;5.40;;;1.80;99.90;;;;;;5083907;28;20036;-67
2022/04/11 00:05:33;;;;;;;11.20;6.68;;;1.80;99.90;;;;;;5085913;28;20133;-68
2022/04/11 00:08:01;;;;;;;11.80;5.70;;;1.70;99.90;;;;;;5097762;28;20502;-67
2022/04/11 00:10:28;;;;;;;10.93;5.78;;;1.70;99.90;;;;;;5093703;28;20540;-67
2022/04/11 00:13:07;;;;;;;11.55;6.72;;;1.70;99.90;;;;;;5089453;28;20040;-68
2022/04/11 00:15:39;;;;;;;10.02;5.85;;;1.70;99.90;;;;;;5096441;28;20558;-67
2022/04/11 00:18:07;;;;;;;13.73;7.20;;;1.80;99.90;;;;;;5104225;28;20032;-66
2022/04/11 00:20:36;;;;;;;9.57;6.47;;;1.70;99.90;;;;;;5106416;28;20070;-67
2022/04/11 00:23:04;;;;;;;7.88;5.35;;;1.70;99.90;;;;;;5103277;28;20363;-67
2022/04/11 00:25:34;;;;;;;11.63;6.30;;;1.70;99.90;;;;;;5106978;28;20043;-67
2022/04/11 00:28:01;;;;;;;12.02;6.72;;;1.70;99.90;;;;;;5104225;28;20079;-68
2022/04/11 00:30:29;;;;;;;10.98;6.22;;;1.70;99.90;;;;;;5078981;28;20040;-68
2022/04/11 00:32:56;;;;;;;11.13;6.25;;;1.70;99.90;;;;;;5088164;28;20112;-68
2022/04/11 00:35:24;;;;;;;10.45;6.22;;;1.70;99.90;;;;;;5107491;28;20500;-68
2022/04/11 00:37:52;;;;;;;14.15;6.30;;;1.70;99.90;;;;;;5106009;28;20882;-68
2022/04/11 00:40:20;;;;;;;11.05;6.38;;;1.60;99.90;;;;;;5104025;28;20035;-67
2022/04/11 00:42:51;;;;;;;10.73;6.85;;;1.60;99.90;;;;;;5102483;28;20465;-67
2022/04/11 00:45:19;;;;;;;10.38;6.20;;;1.60;99.90;;;;;;5102443;28;20089;-67
2022/04/11 00:47:46;;;;;;;12.80;7.57;;;1.60;99.90;;;;;;5091139;28;20044;-67
2022/04/11 00:50:15;;;;;;;12.63;7.05;;;1.60;99.90;;;;;;5090466;28;20052;-66
2022/04/11 00:52:48;;;;;;;11.02;6.32;;;1.60;99.90;;;;;;5089120;28;20043;-67
2022/04/11 00:55:19;;;;;;;10.60;6.57;;;1.60;99.90;;;;;;5101571;28;20445;-68
2022/04/11 00:57:48;;;;;;;11.45;6.57;;;1.50;99.90;;;;;;5105620;28;20042;-67
2022/04/11 01:00:16;;;;;;;12.02;7.60;;;1.50;99.90;;;;;;5099064;28;20498;-68
2022/04/11 01:02:44;;;;;;;9.23;6.32;;;1.50;99.90;;;;;;5088833;28;20080;-67
2022/04/11 01:05:13;;;;;;;12.30;6.70;;;1.50;99.90;;;;;;5099108;28;20123;-68
2022/04/11 01:07:44;;;;;;;10.98;6.68;;;1.40;99.90;;;;;;5096446;28;20055;-66
2022/04/11 01:10:13;;;;;;;10.02;6.57;;;1.40;99.90;;;;;;5080188;28;20236;-68
2022/04/11 01:12:41;;;;;;;11.50;7.40;;;1.40;99.90;;;;;;5089887;28;20044;-67
2022/04/11 01:15:11;;;;;;;11.15;7.53;;;1.30;99.90;;;;;;5104549;28;20660;-68
2022/04/11 01:17:39;;;;;;;11.77;7.05;;;1.40;99.90;;;;;;5082010;28;20047;-67
2022/04/11 01:20:16;;;;;;;11.93;6.13;;;1.40;99.90;;;;;;5104640;28;20417;-66
2022/04/11 01:22:43;;;;;;;12.25;6.72;;;1.40;99.90;;;;;;5099529;28;20036;-68
2022/04/11 01:25:16;;;;;;;10.80;6.90;;;1.30;99.90;;;;;;5099722;28;20067;-68
2022/04/11 01:27:45;;;;;;;13.52;7.43;;;1.30;99.90;;;;;;5097667;28;20040;-68
2022/04/11 01:30:15;;;;;;;12.07;6.00;;;1.30;99.90;;;;;;5095911;28;20058;-68
2022/04/11 01:32:44;;;;;;;12.33;6.30;;;1.30;99.90;;;;;;5095474;28;20560;-68
2022/04/11 01:35:26;;;;;;;9.95;6.30;;;1.20;99.90;;;;;;5097223;28;20285;-67
2022/04/11 01:38:00;;;;;;;13.68;6.38;;;1.20;99.90;;;;;;5081691;28;20036;-67
2022/04/11 01:40:27;;;;;;;13.65;6.82;;;1.20;99.90;;;;;;5101908;28;20092;-67
2022/04/11 01:42:55;;;;;;;12.43;6.57;;;1.10;99.90;;;;;;5093726;28;20574;-66
2022/04/11 01:45:22;;;;;;;16.17;7.28;;;1.10;99.90;;;;;;5093745;28;20032;-68
2022/04/11 01:47:50;;;;;;;10.98;6.95;;;1.10;99.90;;;;;;5094424;28;20047;-67
2022/04/11 01:50:17;;;;;;;11.60;7.50;;;1.10;99.90;;;;;;5098016;28;20039;-68
2022/04/11 01:52:45;;;;;;;11.90;6.85;;;1.10;99.90;;;;;;5097559;28;20057;-67
2022/04/11 01:55:13;;;;;;;10.95;6.65;;;1.10;99.90;;;;;;5100332;28;20455;-67
2022/04/11 01:57:46;;;;;;;11.73;6.20;;;1.00;99.90;;;;;;5086464;28;20139;-68
2022/04/11 02:00:14;;;;;;;10.50;7.05;;;1.00;99.90;;;;;;5096703;28;20487;-69
2022/04/11 02:02:43;;;;;;;12.85;7.10;;;1.00;99.90;;;;;;5086355;28;20564;-67
2022/04/11 02:05:11;;;;;;;13.45;7.53;;;1.00;99.90;;;;;;5086779;28;20077;-67
2022/04/11 02:07:39;;;;;;;13.55;6.65;;;1.00;99.90;;;;;;5087291;28;20040;-67
2022/04/11 02:10:07;;;;;;;10.57;7.07;;;1.00;99.90;;;;;;5085227;28;20044;-67
2022/04/11 02:12:35;;;;;;;13.32;7.10;;;1.00;99.90;;;;;;5080678;28;20503;-68
2022/04/11 02:15:03;;;;;;;13.02;7.47;;;1.00;99.90;;;;;;5092389;28;20040;-67
2022/04/11 02:17:30;;;;;;;11.25;7.20;;;0.90;99.90;;;;;;5102372;28;20044;-66
2022/04/11 02:19:58;;;;;;;11.18;6.65;;;0.90;99.90;;;;;;5103778;28;20095;-68
2022/04/11 02:22:25;;;;;;;13.32;6.80;;;1.00;99.90;;;;;;5104253;28;20148;-68
2022/04/11 02:24:52;;;;;;;14.30;7.05;;;1.00;99.90;;;;;;5106243;28;20096;-67
2022/04/11 02:27:20;;;;;;;10.00;6.40;;;0.90;99.90;;;;;;5106253;28;20040;-67
2022/04/11 02:29:48;;;;;;;12.18;6.75;;;1.00;99.90;;;;;;5103807;28;20089;-67
2022/04/11 02:32:15;;;;;;;10.18;6.57;;;0.90;99.90;;;;;;5098777;28;20040;-68
2022/04/11 02:34:42;;;;;;;14.48;8.30;;;0.90;99.90;;;;;;5098212;27;20075;-68
2022/04/11 02:37:10;;;;;;;13.25;7.47;;;0.90;99.90;;;;;;5090643;28;20451;-67
2022/04/11 02:39:37;;;;;;;10.55;7.07;;;1.00;99.90;;;;;;5101842;28;20047;-67
2022/04/11 02:42:06;;;;;;;12.60;8.23;;;1.00;99.90;;;;;;5086484;28;20678;-68
2022/04/11 02:44:33;;;;;;;11.32;7.35;;;0.90;99.90;;;;;;5097582;28;20075;-68
2022/04/11 02:47:01;;;;;;;14.27;6.50;;;0.90;99.90;;;;;;5104626;28;20027;-67
2022/04/11 02:49:29;;;;;;;14.82;7.57;;;0.90;99.90;;;;;;5103078;28;20062;-68
2022/04/11 02:52:18;;;;;;;11.80;6.45;;;0.90;99.90;;;;;;5100588;28;20047;-68
2022/04/11 02:54:46;;;;;;;13.15;7.72;;;0.90;99.90;;;;;;5101216;28;20357;-67
2022/04/11 02:57:13;;;;;;;13.15;7.88;;;0.80;99.90;;;;;;5102334;28;20418;-68
2022/04/11 02:59:40;;;;;;;13.95;7.05;;;0.80;99.90;;;;;;5084926;28;20439;-67
2022/04/11 03:02:08;;;;;;;15.23;7.78;;;0.90;99.90;;;;;;5089367;28;20058;-66
2022/04/11 03:04:36;;;;;;;13.90;8.00;;;0.90;99.90;;;;;;5100790;28;20043;-67
2022/04/11 03:07:15;;;;;;;13.65;7.15;;;0.90;99.90;;;;;;5079777;28;20254;-67
2022/04/11 03:09:43;;;;;;;15.40;7.63;;;0.90;99.90;;;;;;5100693;28;20406;-67
2022/04/11 03:12:11;;;;;;;14.18;7.05;;;0.90;99.90;;;;;;5091800;28;20048;-67
2022/04/11 03:14:38;;;;;;;13.70;7.72;;;0.90;99.90;;;;;;5097536;28;20036;-68
2022/04/11 03:17:08;;;;;;;12.02;6.30;;;0.90;99.90;;;;;;5108865;28;20044;-68
2022/04/11 03:19:36;;;;;;;10.90;6.47;;;0.90;99.90;;;;;;5106739;28;20479;-68
2022/04/11 03:22:04;;;;;;;14.23;7.90;;;0.90;99.90;;;;;;5109428;28;20048;-68
2022/04/11 03:24:32;;;;;;;13.05;7.57;;;0.90;99.90;;;;;;5106977;28;20040;-67
2022/04/11 03:26:59;;;;;;;16.10;7.68;;;0.90;99.90;;;;;;5111199;28;20039;-66
2022/04/11 03:29:31;;;;;;;12.07;7.47;;;0.80;99.90;;;;;;5094892;28;20040;-66
2022/04/11 03:31:59;;;;;;;12.13;7.72;;;0.90;99.90;;;;;;5086753;28;20573;-65
2022/04/11 03:34:30;;;;;;;12.95;8.32;;;0.80;99.90;;;;;;5100678;28;20383;-66
2022/04/11 03:36:57;;;;;;;10.95;7.07;;;0.80;99.90;;;;;;5100825;28;20135;-65
2022/04/11 03:39:29;;;;;;;11.25;6.95;;;0.80;99.90;;;;;;5089644;28;20577;-66
2022/04/11 03:41:56;;;;;;;10.25;6.55;;;0.80;99.90;;;;;;5089774;28;20474;-66
2022/04/11 03:44:28;;;;;;;12.27;7.78;;;0.80;99.90;;;;;;5077336;28;20491;-66
2022/04/11 03:47:02;;;;;;;10.07;7.03;;;0.80;99.90;;;;;;5096218;28;20046;-66
2022/04/11 03:49:32;;;;;;;14.57;8.20;;;0.80;99.90;;;;;;5095859;28;20114;-67
2022/04/11 03:52:09;;;;;;;11.13;7.07;;;0.80;99.90;;;;;;5099074;28;20032;-65
2022/04/11 03:54:37;;;;;;;15.02;8.13;;;0.80;99.90;;;;;;5096149;28;20048;-66
2022/04/11 03:57:04;;;;;;;10.95;6.80;;;0.80;99.90;;;;;;5098029;28;20754;-66
2022/04/11 03:59:32;;;;;;;12.80;8.13;;;0.80;99.90;;;;;;5102282;28;20039;-66
2022/04/11 04:01:59;;;;;;;18.15;8.35;;;0.80;99.90;;;;;;5108484;28;20134;-66
2022/04/11 04:04:27;;;;;;;13.85;8.75;;;0.80;99.90;;;;;;5109409;28;20119;-65
2022/04/11 04:06:54;;;;;;;13.23;7.93;;;0.80;99.90;;;;;;5093332;28;20679;-66
2022/04/11 04:09:22;;;;;;;15.45;9.02;;;0.80;99.90;;;;;;5056193;28;20044;-66
2022/04/11 04:11:49;;;;;;;14.38;8.93;;;0.80;99.90;;;;;;5088490;28;20426;-66
2022/04/11 04:14:25;;;;;;;14.63;8.48;;;0.80;99.90;;;;;;5088400;28;20043;-66
2022/04/11 04:16:55;;;;;;;14.65;7.72;;;0.80;99.90;;;;;;5090898;28;20139;-65
2022/04/11 04:19:31;;;;;;;15.40;8.43;;;0.80;99.90;;;;;;5087751;28;20626;-66
2022/04/11 04:22:06;;;;;;;11.98;7.80;;;0.80;99.90;;;;;;5088561;28;20569;-66
2022/04/11 04:24:34;;;;;;;13.80;8.60;;;0.80;99.90;;;;;;5097711;28;20036;-67
2022/04/11 04:27:03;;;;;;;17.00;8.85;;;0.80;99.90;;;;;;5103930;28;20044;-67
2022/04/11 04:29:32;;;;;;;14.38;8.65;;;0.80;99.90;;;;;;5096054;28;20040;-66
2022/04/11 04:31:59;;;;;;;12.30;8.88;;;0.80;99.90;;;;;;5084548;28;20059;-67
2022/04/11 04:34:30;;;;;;;16.10;9.02;;;0.80;99.90;;;;;;5075510;28;20044;-65
2022/04/11 04:36:58;;;;;;;12.57;7.65;;;0.80;99.90;;;;;;5097150;28;20455;-67
2022/04/11 04:39:26;;;;;;;13.18;8.32;;;0.80;99.90;;;;;;5096357;28;20047;-66
2022/04/11 04:41:54;;;;;;;14.23;8.00;;;0.80;99.90;;;;;;5093082;28;20074;-66
2022/04/11 04:44:23;;;;;;;11.73;7.38;;;0.80;99.90;;;;;;5088748;28;20115;-67
2022/04/11 04:46:55;;;;;;;;;;;0.80;99.90;;;;;;5079737;28;20522;-65
2022/04/11 04:49:27;;;;;;;15.32;8.27;;;0.80;99.90;;;;;;5093470;28;20344;-66
2022/04/11 04:51:57;;;;;;;10.70;7.47;;;0.90;99.90;;;;;;5094236;28;20048;-66
2022/04/11 04:54:26;;;;;;;13.88;8.38;;;0.90;99.90;;;;;;5088422;28;20050;-65
2022/04/11 04:56:55;;;;;;;13.73;7.90;;;0.90;99.90;;;;;;5071201;28;20419;-66
2022/04/11 04:59:27;;;;;;;16.98;7.45;;;1.00;99.90;;;;;;5105738;28;20051;-65
2022/04/11 05:01:59;;;;;;;15.32;8.88;;;1.10;99.90;;;;;;5086931;28;20040;-67
2022/04/11 05:04:27;;;;;;;14.00;8.10;;;1.20;99.90;;;;;;5088982;28;20463;-66
2022/04/11 05:06:56;;;;;;;14.85;8.85;;;1.20;99.90;;;;;;5086205;28;20431;-66
2022/04/11 05:09:24;;;;;;;11.95;7.93;;;1.30;99.90;;;;;;5093968;28;20127;-67
2022/04/11 05:11:52;;;;;;;15.05;8.55;;;1.40;99.90;;;;;;5098378;28;20071;-66
2022/04/11 05:14:23;;;;;;;12.63;7.75;;;1.40;99.90;;;;;;5108830;28;20118;-66
2022/04/11 05:16:52;;;;;;;13.88;8.68;;;1.50;99.90;;;;;;5100974;28;20043;-65
2022/04/11 05:19:22;;;;;;;12.80;8.02;;;1.60;99.90;;;;;;5102361;28;20135;-66
2022/04/11 05:21:50;;;;;;;15.00;9.30;;;1.60;99.90;;;;;;5101991;28;20126;-66
2022/04/11 05:24:18;;;;;;;17.98;11.10;;;1.70;99.90;;;;;;5096603;28;20569;-66
2022/04/11 05:26:46;;;;;;;22.08;10.00;;;1.80;99.90;;;;;;5097386;28;20047;-66
2022/04/11 05:29:13;;;;;;;12.70;8.40;;;1.80;99.90;;;;;;5084324;28;20028;-66
2022/04/11 05:31:41;;;;;;;15.50;7.63;;;1.90;99.90;;;;;;5083648;28;20062;-66
2022/04/11 05:34:09;;;;;;;14.05;8.23;;;1.90;99.90;;;;;;5087642;28;20599;-64
2022/04/11 05:36:36;;;;;;;14.75;8.20;;;2.00;99.90;;;;;;5086713;28;20085;-66
2022/04/11 05:39:04;;;;;;;11.75;7.45;;;2.10;99.90;;;;;;5084683;28;20075;-66
2022/04/11 05:41:34;;;;;;;13.35;7.85;;;2.20;99.90;;;;;;5087446;28;20036;-65
2022/04/11 05:44:01;;;;;;;15.55;7.80;;;2.20;99.90;;;;;;5092457;28;20025;-66
2022/04/11 05:46:35;;;;;;;16.80;9.65;;;2.30;99.90;;;;;;5086634;28;20039;-65
2022/04/11 05:49:14;;;;;;;15.38;8.23;;;2.40;99.90;;;;;;5086308;28;20044;-65
2022/04/11 05:51:42;;;;;;;14.98;7.18;;;2.50;99.90;;;;;;5088062;28;20040;-65
2022/04/11 05:54:09;;;;;;;11.02;6.85;;;2.60;99.90;;;;;;5084620;28;20131;-66
2022/04/11 05:56:36;;;;;;;21.38;7.65;;;2.60;99.90;;;;;;5092246;28;20044;-65
2022/04/11 05:59:08;;;;;;;;;;;2.70;99.90;;;;;;5105109;28;20039;-66
2022/04/11 06:01:36;;;;;;;12.80;7.50;;;2.80;99.90;;;;;;5098952;28;19923;-66
2022/04/11 06:04:04;;;;;;;13.55;8.60;;;2.80;99.90;;;;;;5099561;28;20130;-66
2022/04/11 06:06:32;;;;;;;12.30;8.02;;;2.90;99.90;;;;;;5111968;28;20119;-66
2022/04/11 06:09:00;;;;;;;14.52;8.27;;;3.00;99.90;;;;;;5088838;28;20032;-66
2022/04/11 06:11:28;;;;;;;12.43;7.82;;;3.00;99.90;;;;;;5106664;27;20067;-66
2022/04/11 06:13:56;;;;;;;19.23;8.07;;;3.20;99.90;;;;;;5085095;28;20052;-67
2022/04/11 06:16:24;;;;;;;17.90;8.02;;;3.30;99.90;;;;;;5092177;28;20039;-66
2022/04/11 06:18:51;;;;;;;17.23;8.05;;;3.40;99.90;;;;;;5092966;28;20044;-66
2022/04/11 06:21:19;;;;;;;14.82;8.73;;;3.40;99.90;;;;;;5099298;28;20766;-66
2022/04/11 06:23:46;;;;;;;13.73;8.18;;;3.60;99.90;;;;;;5089958;28;20032;-66
2022/04/11 06:26:15;;;;;;;13.43;7.93;;;3.80;99.90;;;;;;5087130;28;20064;-66
2022/04/11 06:28:45;;;;;;;13.68;7.47;;;4.00;99.90;;;;;;5091404;28;20052;-67
2022/04/11 06:31:15;;;;;;;14.02;8.90;;;4.20;99.90;;;;;;5090387;28;20131;-66
2022/04/11 06:33:48;;;;;;;15.98;7.88;;;4.20;99.90;;;;;;5088919;28;20530;-67
2022/04/11 06:36:20;;;;;;;21.45;10.85;;;4.30;99.90;;;;;;5096250;28;20881;-66
2022/04/11 06:38:48;;;;;;;23.98;9.00;;;4.40;99.90;;;;;;5086946;28;20140;-65
2022/04/11 06:41:16;;;;;;;17.20;8.23;;;4.50;99.90;;;;;;5090171;28;20514;-65
2022/04/11 06:43:44;;;;;;;19.40;9.02;;;4.60;99.90;;;;;;5091624;28;20046;-65
2022/04/11 06:46:21;;;;;;;21.20;9.73;;;4.70;99.90;;;;;;5090268;28;20125;-66
2022/04/11 06:48:48;;;;;;;15.68;9.88;;;4.80;99.90;;;;;;5095687;28;20040;-66
2022/04/11 06:51:17;;;;;;;18.13;9.02;;;4.80;99.90;;;;;;5094213;28;20055;-66
2022/04/11 06:53:45;;;;;;;13.95;7.90;;;4.90;99.90;;;;;;5092451;28;20044;-65
2022/04/11 06:56:12;;;;;;;12.43;8.98;;;4.90;99.90;;;;;;5102990;28;20514;-66
2022/04/11 06:58:40;;;;;;;17.13;9.35;;;5.00;99.90;;;;;;5091747;28;20059;-66
2022/04/11 07:01:08;;;;;;;16.02;9.23;;;4.90;99.90;;;;;;5093174;28;20086;-65
2022/04/11 07:03:35;;;;;;;14.30;7.60;;;5.00;99.90;;;;;;5096274;28;20032;-67
2022/04/11 07:06:03;;;;;;;17.52;9.90;;;5.00;99.90;;;;;;5081009;28;20533;-67
2022/04/11 07:08:30;;;;;;;20.02;10.48;;;5.00;99.90;;;;;;5094986;28;20063;-66
2022/04/11 07:10:59;;;;;;;15.82;9.02;;;4.90;99.90;;;;;;5097831;28;20040;-66
2022/04/11 07:13:27;;;;;;;13.00;7.90;;;4.90;99.90;;;;;;5083198;28;20079;-65
2022/04/11 07:15:54;;;;;;;16.77;8.98;;;5.00;99.90;;;;;;5093462;28;20051;-65
2022/04/11 07:18:27;;;;;;;11.68;7.40;;;5.00;99.90;;;;;;5089000;28;20094;-66
2022/04/11 07:20:54;;;;;;;12.70;8.23;;;5.10;99.90;;;;;;5092123;28;20048;-65
2022/04/11 07:23:22;;;;;;;13.40;7.93;;;5.20;99.90;;;;;;5084117;28;20035;-65
2022/04/11 07:25:50;;;;;;;19.67;9.75;;;5.20;99.90;;;;;;5083048;28;20075;-66
2022/04/11 07:28:20;;;;;;;18.05;10.18;;;5.30;99.90;;;;;;5100492;28;20844;-65
2022/04/11 07:30:47;;;;;;;17.90;8.60;;;5.40;99.90;;;;;;5085599;28;20040;-66
2022/04/11 07:33:15;;;;;;;21.88;8.90;;;5.50;99.90;;;;;;5092546;28;20036;-65
2022/04/11 07:35:42;;;;;;;19.30;10.35;;;5.60;99.90;;;;;;5083596;28;20063;-65
2022/04/11 07:38:10;;;;;;;16.60;9.48;;;5.70;99.90;;;;;;5092659;28;20066;-66
2022/04/11 07:40:37;;;;;;;14.02;9.07;;;5.80;99.90;;;;;;5099263;28;20047;-65
2022/04/11 07:43:04;;;;;;;15.25;9.52;;;5.90;99.90;;;;;;5090946;28;20040;-65
2022/04/11 07:45:32;;;;;;;16.20;9.80;;;6.00;99.90;;;;;;5106911;28;20090;-65
2022/04/11 07:47:59;;;;;;;11.40;8.02;;;6.20;99.90;;;;;;5098360;28;20566;-65
2022/04/11 07:50:26;;;;;;;18.55;8.73;;;6.30;99.90;;;;;;5107273;28;20078;-66
2022/04/11 07:52:54;;;;;;;18.13;8.98;;;6.40;99.90;;;;;;5105335;28;20071;-66
2022/04/11 07:55:21;;;;;;;16.55;9.13;;;6.50;99.90;;;;;;5107050;27;20075;-66
2022/04/11 07:57:48;;;;;;;13.05;7.65;;;6.60;99.90;;;;;;5101915;28;20415;-66
2022/04/11 08:00:21;;;;;;;14.93;9.40;;;6.70;99.90;;;;;;5087956;28;20044;-66
2022/04/11 08:02:54;;;;;;;14.23;8.05;;;6.90;99.90;;;;;;5087358;28;20565;-65
2022/04/11 08:05:23;;;;;;;12.93;8.50;;;7.00;99.90;;;;;;5090494;28;20058;-66
2022/04/11 08:07:51;;;;;;;17.73;8.52;;;7.00;99.90;;;;;;5085997;28;20040;-67
2022/04/11 08:10:19;;;;;;;12.43;7.15;;;7.10;99.90;;;;;;5075733;28;20134;-66
2022/04/11 08:12:59;;;;;;;11.65;7.78;;;7.20;99.90;;;;;;5076983;28;20051;-66
2022/04/11 08:15:30;;;;;;;13.73;7.97;;;7.30;99.90;;;;;;5083453;28;20050;-66
2022/04/11 08:17:58;;;;;;;12.88;8.27;;;7.40;99.90;;;;;;5103892;28;20382;-66
2022/04/11 08:20:27;;;;;;;10.93;7.25;;;7.60;99.90;;;;;;5099050;28;20159;-65
2022/04/11 08:22:54;;;;;;;13.65;7.90;;;7.70;99.90;;;;;;5108169;27;20421;-65
2022/04/11 08:25:22;;;;;;;14.43;7.15;;;7.80;99.90;;;;;;5110970;28;20089;-64
2022/04/11 08:27:51;;;;;;;14.00;7.10;;;7.90;99.90;;;;;;5104014;28;20107;-65
2022/04/11 08:30:18;;;;;;;12.48;6.13;;;8.00;99.90;;;;;;5100152;28;20048;-66
2022/04/11 08:32:48;;;;;;;13.70;5.80;;;8.20;99.90;;;;;;5069006;28;20040;-65
2022/04/11 08:35:19;;;;;;;8.60;5.72;;;8.30;99.90;;;;;;5093233;28;20040;-65
2022/04/11 08:37:47;;;;;;;8.77;5.30;;;8.40;99.90;;;;;;5078279;28;20126;-65
2022/04/11 08:40:19;;;;;;;10.55;5.18;;;8.60;99.90;;;;;;5100112;28;20104;-65
2022/04/11 08:42:48;;;;;;;9.30;4.80;;;8.60;99.90;;;;;;5082426;28;20067;-65
2022/04/11 08:45:19;;;;;;;10.10;5.13;;;8.70;99.90;;;;;;5082663;28;20039;-67
2022/04/11 08:47:48;;;;;;;10.07;5.25;;;8.80;99.90;;;;;;5090006;28;20559;-65
2022/04/11 08:50:16;;;;;;;12.10;5.07;;;8.90;99.90;;;;;;5088739;28;20106;-65
2022/04/11 08:52:43;;;;;;;9.43;4.95;;;9.00;99.90;;;;;;5090360;28;20441;-65
2022/04/11 08:55:11;;;;;;;7.97;4.95;;;9.10;99.90;;;;;;5089970;28;20108;-65
2022/04/11 08:57:39;;;;;;;9.68;5.13;;;9.20;99.90;;;;;;5078474;28;20063;-65
2022/04/11 09:00:10;;;;;;;10.15;4.45;;;9.30;99.90;;;;;;5101119;28;20307;-65
2022/04/11 09:02:39;;;;;;;6.57;3.95;;;9.30;99.90;;;;;;5085867;28;20045;-65
2022/04/11 09:05:07;;;;;;;9.10;3.80;;;9.30;99.90;;;;;;5103984;28;20141;-66
2022/04/11 09:07:53;;;;;;;8.20;4.22;;;9.50;99.90;;;;;;5101064;28;20036;-65
2022/04/11 09:10:23;;;;;;;8.15;3.90;;;9.60;99.90;;;;;;5099386;28;20138;-65
2022/04/11 09:12:52;;;;;;;8.07;3.67;;;9.70;99.90;;;;;;5084649;28;20115;-65
2022/04/11 09:15:25;;;;;;;8.30;3.83;;;9.80;99.90;;;;;;5090279;28;20059;-65
2022/04/11 09:17:55;;;;;;;6.22;3.13;;;9.90;99.90;;;;;;5092416;28;20044;-64
2022/04/11 09:20:26;;;;;;;7.43;2.95;;;10.10;99.90;;;;;;5079501;28;20039;-65
2022/04/11 09:22:54;;;;;;;7.38;3.40;;;10.20;99.90;;;;;;5090708;28;20536;-65
2022/04/11 09:25:24;;;;;;;5.22;2.95;;;10.20;99.90;;;;;;5090704;28;20075;-65
2022/04/11 09:28:08;;;;;;;5.80;3.20;;;10.30;99.90;;;;;;5086018;28;20418;-64
2022/04/11 09:30:37;;;;;;;6.35;3.20;;;10.30;99.90;;;;;;5081641;28;20068;-65
2022/04/11 09:33:06;;;;;;;5.38;2.90;;;10.40;99.90;;;;;;5090052;28;20037;-66
2022/04/11 09:35:36;;;;;;;7.28;3.17;;;10.40;99.90;;;;;;5087778;28;20120;-65
2022/04/11 09:38:12;;;;;;;6.57;3.40;;;10.50;99.90;;;;;;5090456;28;20448;-65
2022/04/11 09:40:52;;;;;;;5.38;3.45;;;10.60;99.90;;;;;;5089198;28;20048;-65
2022/04/11 09:43:31;;;;;;;7.63;3.72;;;10.60;99.90;;;;;;5087492;28;20052;-65
2022/04/11 09:46:01;;;;;;;6.47;2.70;;;10.70;99.90;;;;;;5077228;28;20037;-65
2022/04/11 09:48:35;;;;;;;7.50;3.47;;;10.80;99.90;;;;;;5086737;28;20044;-65
2022/04/11 09:51:10;;;;;;;6.75;3.28;;;10.80;99.90;;;;;;5089969;28;20105;-64
2022/04/11 09:53:38;;;;;;;5.25;2.70;;;11.00;99.90;;;;;;5085059;28;20128;-68
2022/04/11 09:56:09;;;;;;;6.60;3.38;;;11.20;99.90;;;;;;5089056;28;20048;-67
2022/04/11 09:58:39;;;;;;;6.47;3.38;;;11.40;99.90;;;;;;5097608;28;20450;-67
2022/04/11 10:01:07;;;;;;;5.18;3.35;;;11.50;99.90;;;;;;5082268;28;20209;-67
2022/04/11 10:03:35;;;;;;;7.55;3.50;;;11.50;99.90;;;;;;5083387;28;20091;-67
2022/04/11 10:06:05;;;;;;;8.23;3.65;;;11.60;99.90;;;;;;5087699;28;20131;-67
2022/04/11 10:08:35;;;;;;;7.07;3.20;;;11.70;99.90;;;;;;5088936;28;20093;-67
2022/04/11 10:11:04;;;;;;;5.53;3.20;;;11.80;99.90;;;;;;5082621;28;20497;-67
2022/04/11 10:13:36;;;;;;;5.63;3.03;;;12.10;99.90;;;;;;5080475;28;20047;-67
2022/04/11 10:16:05;;;;;;;7.32;2.80;;;12.00;99.90;;;;;;5087559;28;20039;-67
2022/04/11 10:18:34;;;;;;;5.85;2.50;;;12.20;99.90;;;;;;5087674;28;20055;-68
2022/04/11 10:21:09;;;;;;;6.40;3.05;;;12.30;99.90;;;;;;5088344;28;20555;-67
2022/04/11 10:24:11;;;;;;;5.22;2.95;;;12.20;99.90;;;;;;5087900;28;20040;-67
2022/04/11 10:26:53;;;;;;;5.93;2.92;;;12.30;99.90;;;;;;5089099;28;20056;-67
2022/04/11 10:29:34;;;;;;;6.40;3.08;;;12.60;99.90;;;;;;5087990;28;20112;-66
2022/04/11 10:32:13;;;;;;;7.28;2.90;;;12.90;99.90;;;;;;5080815;28;20403;-67
2022/04/11 10:34:49;;;;;;;6.03;2.50;;;13.10;99.90;;;;;;5086384;28;20044;-67
2022/04/11 10:37:18;;;;;;;6.53;3.20;;;13.40;99.90;;;;;;5086111;28;20044;-67
2022/04/11 10:39:46;;;;;;;5.85;2.58;;;13.30;99.90;;;;;;5095080;28;20084;-67
2022/04/11 10:42:22;;;;;;;9.43;3.25;;;13.60;99.90;;;;;;5089134;28;20433;-66
2022/04/11 10:44:56;;;;;;;4.28;2.60;;;13.80;99.90;;;;;;5087004;28;20080;-67
2022/04/11 10:47:31;;;;;;;6.65;3.00;;;14.00;99.90;;;;;;5090887;28;20071;-67
2022/04/11 10:49:59;;;;;;;7.22;2.65;;;14.10;99.90;;;;;;5104740;28;20043;-67
2022/04/11 10:52:31;;;;;;;6.35;2.67;;;14.40;99.90;;;;;;5110681;28;20461;-67
2022/04/11 10:55:27;;;;;;;6.00;2.50;;;14.60;99.90;;;;;;5076691;28;20050;-67
2022/04/11 10:58:02;;;;;;;8.13;2.97;;;14.80;99.90;;;;;;5088445;28;20051;-68
2022/04/11 11:00:32;;;;;;;6.15;2.97;;;15.00;99.90;;;;;;5092264;27;20394;-68
2022/04/11 11:03:02;;;;;;;4.25;2.72;;;15.20;99.90;;;;;;5090987;28;20131;-67
2022/04/11 11:05:43;;;;;;;7.53;2.83;;;15.30;99.80;;;;;;5090212;28;20040;-68
2022/04/11 11:08:11;;;;;;;5.05;2.88;;;15.50;99.60;;;;;;5084896;28;20043;-67
2022/04/11 11:10:50;;;;;;;6.05;2.67;;;15.80;98.40;;;;;;5091676;28;20036;-67
2022/04/11 11:13:34;;;;;;;5.65;2.53;;;16.00;98.20;;;;;;5085251;28;20552;-65
2022/04/11 11:16:06;;;;;;;4.97;2.50;;;15.70;97.00;;;;;;5083794;28;20379;-67
2022/04/11 11:18:46;;;;;;;5.28;2.83;;;15.30;96.50;;;;;;5090151;28;20097;-67
2022/04/11 11:21:20;;;;;;;4.90;2.50;;;15.10;97.80;;;;;;5090321;28;20040;-67
2022/04/11 11:24:10;;;;;;;5.45;2.70;;;15.50;97.40;;;;;;5091181;28;20075;-65
2022/04/11 11:26:48;;;;;;;7.07;2.92;;;15.80;96.50;;;;;;5094093;28;20543;-66
2022/04/11 11:29:19;;;;;;;6.20;2.78;;;15.80;95.50;;;;;;5090761;28;20556;-66
2022/04/11 11:31:49;;;;;;;5.22;2.72;;;16.00;95.30;;;;;;5089034;28;20072;-66
2022/04/11 11:34:18;;;;;;;6.05;3.30;;;16.20;94.40;;;;;;5087484;28;20422;-66
2022/04/11 11:36:46;;;;;;;6.63;2.92;;;16.10;93.20;;;;;;5091506;28;20063;-66
2022/04/11 11:39:35;;;;;;;3.95;2.40;;;16.30;93.90;;;;;;5096908;28;20071;-67
2022/04/11 11:42:09;;;;;;;5.07;2.83;;;17.00;93.50;;;;;;5095543;28;20116;-66
2022/04/11 11:44:47;;;;;;;9.95;3.17;;;17.30;93.30;;;;;;5099973;28;20067;-66
2022/04/11 11:47:15;;;;;;;5.88;2.97;;;17.50;92.50;;;;;;5100530;28;20071;-66
2022/04/11 11:49:47;;;;;;;6.80;3.20;;;17.80;92.10;;;;;;5099986;28;20486;-67
2022/04/11 11:52:17;;;;;;;10.18;3.25;;;18.00;90.70;;;;;;5097614;28;20035;-68
2022/04/11 11:54:47;;;;;;;7.00;2.75;;;17.80;90.20;;;;;;5101748;28;20035;-67
2022/04/11 11:57:29;;;;;;;7.43;2.70;;;18.00;90.40;;;;;;5096501;28;20080;-67
2022/04/11 12:00:08;;;;;;;8.48;4.30;;;18.50;90.30;;;;;;5077502;28;20135;-65
2022/04/11 12:05:28;;;;;;;4.68;2.35;;;19.40;88.10;;;;;;5090605;28;20071;-66
2022/04/11 12:08:13;;;;;;;5.85;3.22;;;19.60;87.00;;;;;;5070619;28;20642;-66
2022/04/11 12:10:42;;;;;;;7.13;2.92;;;19.90;83.50;;;;;;5090002;28;20561;-66
2022/04/11 12:13:11;;;;;;;7.35;2.95;;;19.50;82.90;;;;;;5086437;28;20093;-66
2022/04/11 12:15:38;;;;;;;6.07;2.92;;;19.50;83.20;;;;;;5080729;28;20105;-66
2022/04/11 12:18:09;;;;;;;6.55;2.65;;;19.80;81.80;;;;;;5085392;28;20048;-66
2022/04/11 12:20:37;;;;;;;;;;;20.10;81.80;;;;;;5079372;28;20040;-66
2022/04/11 12:23:10;;;;;;;5.25;2.80;;;20.10;82.30;;;;;;5089165;28;20330;-66
2022/04/11 12:25:40;;;;;;;4.85;2.63;;;20.50;80.50;;;;;;5089833;28;20082;-66
2022/04/11 12:28:11;;;;;;;5.95;2.80;;;21.20;79.80;;;;;;5077116;28;20044;-67
2022/04/11 12:30:45;;;;;;;7.22;3.10;;;21.40;78.00;;;;;;5081563;28;20037;-66
2022/04/11 12:33:35;;;;;;;6.85;2.60;;;21.30;76.00;;;;;;5082675;28;20036;-66
2022/04/11 12:36:12;;;;;;;5.50;2.40;;;21.30;75.40;;;;;;5086013;28;20044;-67
2022/04/11 12:38:50;;;;;;;5.63;2.90;;;21.50;74.20;;;;;;5094686;28;20406;-66
2022/04/11 12:41:27;;;;;;;8.98;2.42;;;21.90;75.00;;;;;;5096609;28;20123;-65
2022/04/11 12:44:09;;;;;;;5.05;2.35;;;21.30;71.90;;;;;;5108613;28;20454;-66
2022/04/11 12:46:41;;;;;;;4.65;2.65;;;21.50;74.30;;;;;;5082611;28;20402;-66
2022/04/11 12:49:09;;;;;;;;;;;22.20;73.20;;;;;;5088822;28;20044;-66
2022/04/11 12:51:37;;;;;;;4.85;2.55;;;22.40;73.20;;;;;;5085023;28;19985;-66
2022/04/11 12:54:14;;;;;;;5.53;2.75;;;23.00;73.10;;;;;;5090960;28;20399;-65
2022/04/11 12:56:49;;;;;;;7.72;2.88;;;23.60;72.30;;;;;;5068638;28;21745;-65
2022/04/11 12:59:31;;;;;;;7.78;2.45;;;23.80;70.90;;;;;;5090795;28;20052;-65
2022/04/11 13:02:09;;;;;;;4.65;2.60;;;24.10;68.20;;;;;;5086737;28;20154;-65
2022/04/11 13:04:40;;;;;;;5.85;2.30;;;24.00;65.70;;;;;;5087092;28;20044;-65
2022/04/11 13:07:08;;;;;;;5.65;2.50;;;24.30;66.40;;;;;;5088322;28;20457;-66